Time;durP1;ratioP1;P1;durP2;ratioP2;P2;SDS_P1;SDS_P2;PMS_P1;PMS_P2;Temp;Humidity;BMP_temperature;BMP_pressure;BME280_temperature;BME280_humidity;BME280_pressure;Samples;Min_cycle;Max_cycle;Signal;HPM_P1;HPM_P2
2022/07/26 00:00:31;;;;;;;2.65;2.30;;;;;;;;;;5053289;28;20224;-40
2022/07/26 00:02:58;;;;;;;9.38;2.30;;;;;;;;;;5072079;28;20200;-38
2022/07/26 00:05:27;;;;;;;5.07;2.00;;;;;;;;;;5058530;28;20210;-33
2022/07/26 00:08:09;;;;;;;3.30;1.80;;;;;;;;;;5065952;28;20227;-39
2022/07/26 00:10:36;;;;;;;3.95;1.95;;;;;;;;;;5067494;28;20227;-36
2022/07/26 00:13:04;;;;;;;2.35;2.15;;;;;;;;;;5037115;28;20216;-39
2022/07/26 00:15:31;;;;;;;2.05;1.67;;;;;;;;;;5035341;28;20210;-39
2022/07/26 00:17:58;;;;;;;2.65;1.98;;;;;;;;;;5062070;28;20225;-34
2022/07/26 00:20:25;;;;;;;3.00;2.03;;;;;;;;;;5058786;28;20226;-40
2022/07/26 00:22:54;;;;;;;2.05;1.90;;;;;;;;;;5068498;28;20214;-38
2022/07/26 00:25:21;;;;;;;2.45;2.15;;;;;;;;;;5067287;28;20200;-35
2022/07/26 00:27:48;;;;;;;3.08;1.90;;;;;;;;;;5035162;28;20368;-37
2022/07/26 00:30:15;;;;;;;5.85;1.98;;;;;;;;;;5043957;28;20204;-34
2022/07/26 00:32:42;;;;;;;3.45;2.00;;;;;;;;;;5060406;28;20200;-40
2022/07/26 00:35:10;;;;;;;2.97;2.10;;;;;;;;;;5064337;28;20213;-38
2022/07/26 00:37:37;;;;;;;3.22;1.88;;;;;;;;;;5061459;28;20231;-36
2022/07/26 00:40:09;;;;;;;2.92;2.00;;;;;;;;;;5067034;28;20211;-40
2022/07/26 00:42:36;;;;;;;3.75;1.70;;;;;;;;;;5052132;28;20204;-36
2022/07/26 00:45:04;;;;;;;3.35;1.80;;;;;;;;;;5058918;28;20214;-35
2022/07/26 00:47:32;;;;;;;1.90;1.80;;;;;;;;;;5074351;28;20215;-36
2022/07/26 00:49:59;;;;;;;2.38;1.60;;;;;;;;;;5068556;28;20201;-37
2022/07/26 00:52:26;;;;;;;2.90;1.70;;;;;;;;;;5054653;28;20201;-39
2022/07/26 00:54:55;;;;;;;1.80;1.70;;;;;;;;;;5066405;28;20219;-39
2022/07/26 00:57:24;;;;;;;1.80;1.63;;;;;;;;;;5074492;28;20248;-39
2022/07/26 00:59:51;;;;;;;3.22;2.00;;;;;;;;;;5063643;28;20225;-37
2022/07/26 01:02:18;;;;;;;5.25;2.42;;;;;;;;;;5042060;28;20207;-38
2022/07/26 01:04:46;;;;;;;1.73;1.52;;;;;;;;;;5054668;28;20205;-39
2022/07/26 01:07:13;;;;;;;2.78;1.75;;;;;;;;;;5059975;28;20223;-35
2022/07/26 01:09:41;;;;;;;2.67;1.60;;;;;;;;;;5058219;28;20204;-35
2022/07/26 01:12:09;;;;;;;2.55;1.70;;;;;;;;;;5033905;28;20210;-40
2022/07/26 01:14:37;;;;;;;2.72;1.50;;;;;;;;;;5054045;28;20204;-38
2022/07/26 01:17:04;;;;;;;2.92;1.40;;;;;;;;;;5072006;28;20294;-40
2022/07/26 01:19:31;;;;;;;2.20;1.40;;;;;;;;;;5071431;28;20205;-38
2022/07/26 01:22:00;;;;;;;5.22;1.80;;;;;;;;;;5047826;28;20228;-40
2022/07/26 01:24:27;;;;;;;7.50;1.90;;;;;;;;;;5073551;28;20200;-36
2022/07/26 01:26:55;;;;;;;2.22;1.58;;;;;;;;;;5053391;28;20232;-41
2022/07/26 01:29:22;;;;;;;2.25;1.63;;;;;;;;;;5049679;28;20202;-40
2022/07/26 01:31:50;;;;;;;2.55;1.77;;;;;;;;;;5061564;28;20199;-31
2022/07/26 01:34:17;;;;;;;3.05;1.58;;;;;;;;;;5053309;28;20200;-37
2022/07/26 01:36:44;;;;;;;1.70;1.48;;;;;;;;;;5056482;28;20234;-42
2022/07/26 01:39:12;;;;;;;3.80;1.60;;;;;;;;;;5072467;28;20208;-39
2022/07/26 01:41:40;;;;;;;1.80;1.70;;;;;;;;;;5072356;28;20224;-41
2022/07/26 01:44:07;;;;;;;2.25;1.50;;;;;;;;;;5064273;28;20212;-34
2022/07/26 01:46:34;;;;;;;2.20;1.45;;;;;;;;;;5058364;28;20226;-37
2022/07/26 01:49:01;;;;;;;1.98;1.52;;;;;;;;;;5073064;28;20198;-38
2022/07/26 01:51:29;;;;;;;7.30;2.28;;;;;;;;;;5051785;28;20200;-33
2022/07/26 01:53:56;;;;;;;27.25;4.07;;;;;;;;;;5069806;28;20214;-37
2022/07/26 01:56:25;;;;;;;4.38;1.60;;;;;;;;;;5073136;28;20228;-40
2022/07/26 01:58:52;;;;;;;3.42;1.35;;;;;;;;;;5067605;28;20235;-37
2022/07/26 02:01:19;;;;;;;1.85;1.40;;;;;;;;;;5053599;28;20230;-38
2022/07/26 02:03:46;;;;;;;3.60;1.30;;;;;;;;;;5060836;28;20205;-40
2022/07/26 02:06:13;;;;;;;1.48;1.35;;;;;;;;;;5045241;28;20195;-33
2022/07/26 02:08:40;;;;;;;2.72;1.33;;;;;;;;;;5070167;28;20219;-35
2022/07/26 02:11:07;;;;;;;1.70;1.17;;;;;;;;;;5072691;28;20200;-40
2022/07/26 02:13:37;;;;;;;1.90;1.25;;;;;;;;;;5072423;28;20249;-37
2022/07/26 02:16:05;;;;;;;2.97;1.00;;;;;;;;;;5038000;28;20204;-36
2022/07/26 02:18:32;;;;;;;4.20;1.15;;;;;;;;;;5060028;28;20202;-39
2022/07/26 02:21:00;;;;;;;1.08;1.00;;;;;;;;;;5050490;28;20223;-35
2022/07/26 02:23:27;;;;;;;1.85;1.33;;;;;;;;;;5067589;28;20203;-36
2022/07/26 02:25:55;;;;;;;1.58;1.15;;;;;;;;;;5059098;28;20564;-35
2022/07/26 02:28:22;;;;;;;2.28;1.33;;;;;;;;;;5043481;28;20217;-36
2022/07/26 02:30:51;;;;;;;2.40;1.00;;;;;;;;;;5037250;28;20210;-39
2022/07/26 02:33:19;;;;;;;1.65;1.25;;;;;;;;;;5068113;28;20207;-40
2022/07/26 02:35:46;;;;;;;1.52;1.17;;;;;;;;;;5050704;28;20212;-32
2022/07/26 02:38:15;;;;;;;2.03;1.42;;;;;;;;;;5068368;28;20224;-35
2022/07/26 02:40:42;;;;;;;4.38;1.00;;;;;;;;;;5056737;28;20231;-34
2022/07/26 02:43:10;;;;;;;1.08;1.00;;;;;;;;;;5047824;28;20209;-36
2022/07/26 02:45:37;;;;;;;3.08;1.20;;;;;;;;;;5046471;28;20212;-36
2022/07/26 02:48:06;;;;;;;1.27;1.27;;;;;;;;;;5072204;28;20223;-39
2022/07/26 02:50:33;;;;;;;3.33;1.27;;;;;;;;;;5060268;28;20207;-39
2022/07/26 02:53:00;;;;;;;1.20;1.10;;;;;;;;;;5062213;28;20212;-41
2022/07/26 02:55:27;;;;;;;1.58;1.02;;;;;;;;;;5067521;28;20202;-42
2022/07/26 02:57:55;;;;;;;1.63;1.17;;;;;;;;;;5046627;28;20224;-41
2022/07/26 03:00:23;;;;;;;1.30;1.13;;;;;;;;;;5056577;28;20204;-32
2022/07/26 03:02:51;;;;;;;1.20;1.10;;;;;;;;;;5072420;28;20204;-35
2022/07/26 03:05:19;;;;;;;4.72;1.30;;;;;;;;;;5059768;28;20217;-37
2022/07/26 03:07:47;;;;;;;5.60;1.42;;;;;;;;;;5059404;28;20228;-40
2022/07/26 03:10:14;;;;;;;2.53;1.25;;;;;;;;;;5062719;28;20247;-37
2022/07/26 03:12:41;;;;;;;1.95;1.10;;;;;;;;;;5045468;28;20201;-40
2022/07/26 03:15:09;;;;;;;1.02;1.00;;;;;;;;;;5053335;28;20215;-38
2022/07/26 03:17:36;;;;;;;9.80;2.08;;;;;;;;;;5071824;28;20215;-41
2022/07/26 03:20:04;;;;;;;8.38;1.70;;;;;;;;;;5063206;28;20207;-39
2022/07/26 03:22:32;;;;;;;1.42;1.33;;;;;;;;;;5054719;28;20228;-37
2022/07/26 03:24:59;;;;;;;2.55;1.20;;;;;;;;;;5068689;28;20210;-34
2022/07/26 03:27:27;;;;;;;1.70;1.00;;;;;;;;;;5069166;28;20230;-40
2022/07/26 03:29:54;;;;;;;2.40;0.98;;;;;;;;;;5050169;28;20248;-35
2022/07/26 03:32:21;;;;;;;2.55;1.38;;;;;;;;;;5072214;28;20195;-38
2022/07/26 03:34:48;;;;;;;3.88;1.10;;;;;;;;;;5065512;28;20208;-38
2022/07/26 03:37:15;;;;;;;1.48;1.20;;;;;;;;;;5058572;28;20224;-36
2022/07/26 03:39:44;;;;;;;1.67;1.05;;;;;;;;;;5067545;28;20210;-36
2022/07/26 03:42:11;;;;;;;1.35;1.10;;;;;;;;;;5064728;28;20223;-35
2022/07/26 03:44:38;;;;;;;1.42;1.20;;;;;;;;;;5053257;28;20217;-38
2022/07/26 03:47:05;;;;;;;1.77;1.27;;;;;;;;;;5069395;28;20235;-41
2022/07/26 03:49:32;;;;;;;1.55;1.23;;;;;;;;;;5073114;28;20203;-37
2022/07/26 03:51:59;;;;;;;1.13;1.13;;;;;;;;;;5039991;28;20212;-39
2022/07/26 03:54:27;;;;;;;1.20;1.10;;;;;;;;;;5069746;28;20211;-38
2022/07/26 03:56:54;;;;;;;1.20;1.10;;;;;;;;;;5058464;28;20223;-36
2022/07/26 03:59:22;;;;;;;2.10;1.00;;;;;;;;;;5057652;28;20202;-42
2022/07/26 04:01:50;;;;;;;1.23;1.13;;;;;;;;;;5072572;28;20224;-42
2022/07/26 04:04:17;;;;;;;1.23;1.13;;;;;;;;;;5035186;28;20196;-34
2022/07/26 04:06:45;;;;;;;2.55;1.35;;;;;;;;;;5056348;28;20214;-39
2022/07/26 04:09:12;;;;;;;2.17;1.02;;;;;;;;;;5064082;28;20222;-39
2022/07/26 04:11:39;;;;;;;2.88;1.30;;;;;;;;;;5055330;28;20204;-35
2022/07/26 04:14:08;;;;;;;1.50;1.40;;;;;;;;;;5052982;28;20203;-36
2022/07/26 04:16:35;;;;;;;3.03;1.40;;;;;;;;;;5044584;28;20222;-36
2022/07/26 04:19:02;;;;;;;1.33;1.10;;;;;;;;;;5071132;28;20210;-38
2022/07/26 04:21:29;;;;;;;2.17;1.17;;;;;;;;;;5049166;28;20220;-39
2022/07/26 04:23:56;;;;;;;2.00;1.48;;;;;;;;;;5069547;28;20202;-38
2022/07/26 04:26:24;;;;;;;3.90;1.27;;;;;;;;;;5061621;28;20232;-35
2022/07/26 04:28:51;;;;;;;2.42;1.30;;;;;;;;;;5054996;28;20210;-37
2022/07/26 04:31:20;;;;;;;3.75;1.10;;;;;;;;;;5050366;28;20282;-35
2022/07/26 04:33:47;;;;;;;1.88;1.27;;;;;;;;;;5062771;28;20211;-35
2022/07/26 04:36:14;;;;;;;1.55;1.40;;;;;;;;;;5039764;28;20202;-39
2022/07/26 04:38:41;;;;;;;1.33;1.23;;;;;;;;;;5058197;28;20221;-36
2022/07/26 04:41:09;;;;;;;4.45;1.38;;;;;;;;;;5066722;28;20228;-39
2022/07/26 04:43:36;;;;;;;3.47;1.30;;;;;;;;;;5049041;28;20208;-34
2022/07/26 04:46:03;;;;;;;1.30;1.20;;;;;;;;;;5068093;28;20214;-39
2022/07/26 04:48:32;;;;;;;1.23;1.10;;;;;;;;;;5072278;28;20203;-41
2022/07/26 04:53:35;;;;;;;1.45;1.20;;;;;;;;;;5406103;22;20238;-37
2022/07/26 04:56:02;;;;;;;1.63;1.33;;;;;;;;;;5071860;28;20221;-33
2022/07/26 04:58:29;;;;;;;1.50;1.40;;;;;;;;;;5051619;28;20208;-38
2022/07/26 05:00:57;;;;;;;1.63;1.30;;;;;;;;;;5063189;28;20212;-33
2022/07/26 05:03:24;;;;;;;3.28;1.40;;;;;;;;;;5065864;28;20203;-34
2022/07/26 05:05:53;;;;;;;1.73;1.10;;;;;;;;;;5061976;28;20216;-33
2022/07/26 05:08:20;;;;;;;1.98;1.20;;;;;;;;;;5054521;28;20220;-32
2022/07/26 05:10:47;;;;;;;1.27;1.17;;;;;;;;;;5070482;28;20197;-34
2022/07/26 05:13:14;;;;;;;2.80;1.15;;;;;;;;;;5066629;28;20282;-35
2022/07/26 05:15:42;;;;;;;1.40;1.30;;;;;;;;;;5060271;28;20244;-38
2022/07/26 05:18:10;;;;;;;2.28;1.40;;;;;;;;;;5061897;28;20305;-35
2022/07/26 05:20:37;;;;;;;2.67;1.25;;;;;;;;;;5051813;28;20208;-34
2022/07/26 05:23:06;;;;;;;1.27;1.15;;;;;;;;;;5059327;28;20229;-34
2022/07/26 05:25:33;;;;;;;1.80;1.40;;;;;;;;;;5056929;28;20283;-34
2022/07/26 05:28:00;;;;;;;1.15;1.05;;;;;;;;;;5051423;28;20228;-35
2022/07/26 05:30:27;;;;;;;1.48;1.23;;;;;;;;;;5050540;28;20681;-32
2022/07/26 05:32:54;;;;;;;1.30;1.20;;;;;;;;;;5050833;28;20201;-35
2022/07/26 05:35:21;;;;;;;1.50;1.40;;;;;;;;;;5049704;28;20220;-34
2022/07/26 05:37:49;;;;;;;1.40;1.30;;;;;;;;;;5057302;28;20236;-32
2022/07/26 05:40:17;;;;;;;2.35;1.60;;;;;;;;;;5051429;28;20288;-35
2022/07/26 05:42:44;;;;;;;1.70;1.20;;;;;;;;;;5051287;28;20225;-34
2022/07/26 05:45:12;;;;;;;1.58;1.42;;;;;;;;;;5055538;28;20215;-35
2022/07/26 05:47:39;;;;;;;2.22;1.67;;;;;;;;;;5070567;28;20213;-35
2022/07/26 05:50:06;;;;;;;1.35;1.10;;;;;;;;;;5053839;28;20222;-33
2022/07/26 05:52:34;;;;;;;1.88;1.40;;;;;;;;;;5048643;28;20219;-35
2022/07/26 05:55:01;;;;;;;1.48;1.38;;;;;;;;;;5059025;28;20204;-35
2022/07/26 05:57:29;;;;;;;1.27;1.17;;;;;;;;;;5070490;28;20235;-34
2022/07/26 05:59:56;;;;;;;2.17;1.35;;;;;;;;;;5056793;28;20204;-36
2022/07/26 06:02:23;;;;;;;2.90;1.67;;;;;;;;;;5064396;28;20228;-35
2022/07/26 06:04:50;;;;;;;1.65;1.55;;;;;;;;;;5060862;28;20224;-32
2022/07/26 06:07:17;;;;;;;5.30;1.58;;;;;;;;;;5052074;28;20227;-35
2022/07/26 06:09:45;;;;;;;2.13;1.30;;;;;;;;;;5053824;28;20210;-36
2022/07/26 06:12:12;;;;;;;1.95;1.45;;;;;;;;;;5050417;28;20303;-36
2022/07/26 06:14:40;;;;;;;1.10;1.10;;;;;;;;;;5046816;28;20208;-37
2022/07/26 06:17:07;;;;;;;2.28;1.30;;;;;;;;;;5066345;28;20228;-38
2022/07/26 06:19:35;;;;;;;1.25;1.23;;;;;;;;;;5066613;28;20209;-34
2022/07/26 06:22:02;;;;;;;1.98;1.50;;;;;;;;;;5048049;28;20225;-35
2022/07/26 06:24:29;;;;;;;1.52;1.30;;;;;;;;;;5057706;28;20201;-35
2022/07/26 06:26:56;;;;;;;2.08;1.52;;;;;;;;;;5057379;28;20248;-35
2022/07/26 06:29:24;;;;;;;1.92;1.50;;;;;;;;;;5048000;28;20269;-35
2022/07/26 06:31:52;;;;;;;2.20;1.52;;;;;;;;;;5056905;28;20217;-34
2022/07/26 06:34:20;;;;;;;1.73;1.35;;;;;;;;;;5048933;28;20205;-33
2022/07/26 06:36:47;;;;;;;2.78;1.55;;;;;;;;;;5047959;28;20236;-36
2022/07/26 06:39:14;;;;;;;2.45;1.30;;;;;;;;;;5065938;28;20217;-34
2022/07/26 06:41:41;;;;;;;3.60;1.42;;;;;;;;;;5049790;28;20245;-36
2022/07/26 06:44:08;;;;;;;1.90;1.48;;;;;;;;;;5046564;28;20210;-35
2022/07/26 06:46:36;;;;;;;1.45;1.33;;;;;;;;;;5043320;28;20240;-38
2022/07/26 06:49:04;;;;;;;1.60;1.50;;;;;;;;;;5055230;28;20206;-34
2022/07/26 06:51:31;;;;;;;1.40;1.10;;;;;;;;;;5046616;28;20209;-35
2022/07/26 06:53:58;;;;;;;1.42;1.33;;;;;;;;;;5058620;28;20219;-32
2022/07/26 06:56:26;;;;;;;2.38;1.50;;;;;;;;;;5070331;28;20307;-33
2022/07/26 06:58:54;;;;;;;3.40;1.40;;;;;;;;;;5068200;28;20205;-37
2022/07/26 07:01:21;;;;;;;2.10;1.30;;;;;;;;;;5060502;28;20215;-35
2022/07/26 07:03:48;;;;;;;1.80;1.30;;;;;;;;;;5054480;28;20279;-35
2022/07/26 07:06:16;;;;;;;1.77;1.27;;;;;;;;;;5049767;28;20198;-34
2022/07/26 07:08:44;;;;;;;1.50;1.20;;;;;;;;;;5054581;28;20213;-35
2022/07/26 07:11:11;;;;;;;1.65;1.20;;;;;;;;;;5069700;28;20201;-33
2022/07/26 07:13:38;;;;;;;2.90;1.30;;;;;;;;;;5060816;28;20194;-36
2022/07/26 07:16:05;;;;;;;1.50;1.33;;;;;;;;;;5054132;28;20553;-36
2022/07/26 07:18:32;;;;;;;2.75;1.58;;;;;;;;;;5059660;28;20213;-36
2022/07/26 07:20:59;;;;;;;2.72;1.10;;;;;;;;;;5045396;28;20209;-36
2022/07/26 07:23:28;;;;;;;1.88;1.23;;;;;;;;;;5050886;28;20226;-37
2022/07/26 07:25:55;;;;;;;9.55;1.70;;;;;;;;;;5061627;28;20212;-32
2022/07/26 07:28:22;;;;;;;1.58;1.20;;;;;;;;;;5073029;28;20232;-36
2022/07/26 07:30:49;;;;;;;2.38;1.17;;;;;;;;;;5062156;28;20225;-36
2022/07/26 07:33:16;;;;;;;2.10;1.25;;;;;;;;;;5041973;28;20227;-35
2022/07/26 07:35:45;;;;;;;3.63;1.17;;;;;;;;;;5045861;28;20202;-35
2022/07/26 07:38:13;;;;;;;2.15;1.10;;;;;;;;;;5052054;28;20220;-34
2022/07/26 07:40:41;;;;;;;1.83;1.17;;;;;;;;;;5048999;28;20202;-36
2022/07/26 07:43:08;;;;;;;1.92;1.35;;;;;;;;;;5048915;28;20233;-38
2022/07/26 07:45:35;;;;;;;2.00;1.30;;;;;;;;;;5046949;28;20213;-36
2022/07/26 07:48:02;;;;;;;1.58;1.23;;;;;;;;;;5048182;28;20222;-37
2022/07/26 07:50:30;;;;;;;1.95;1.40;;;;;;;;;;5051503;28;20272;-35
2022/07/26 07:52:57;;;;;;;2.22;1.42;;;;;;;;;;5051432;28;20206;-34
2022/07/26 07:55:24;;;;;;;2.88;1.15;;;;;;;;;;5053467;28;20206;-38
2022/07/26 07:57:52;;;;;;;4.53;1.30;;;;;;;;;;5052114;28;20312;-37
2022/07/26 08:00:20;;;;;;;2.35;1.30;;;;;;;;;;5048989;28;20214;-37
2022/07/26 08:02:47;;;;;;;1.15;1.10;;;;;;;;;;5050842;28;20213;-35
2022/07/26 08:05:14;;;;;;;4.88;1.48;;;;;;;;;;5050288;28;20197;-36
2022/07/26 08:07:41;;;;;;;2.30;1.42;;;;;;;;;;5048111;28;20226;-34
2022/07/26 08:10:09;;;;;;;1.50;0.93;;;;;;;;;;5055014;28;20205;-35
2022/07/26 08:12:36;;;;;;;2.50;1.10;;;;;;;;;;5051017;28;20210;-33
2022/07/26 08:15:06;;;;;;;1.65;1.00;;;;;;;;;;5049740;28;20197;-33
2022/07/26 08:17:33;;;;;;;1.23;1.02;;;;;;;;;;5051416;28;20287;-37
2022/07/26 08:20:00;;;;;;;4.82;1.25;;;;;;;;;;5053369;28;20209;-35
2022/07/26 08:22:27;;;;;;;2.50;1.33;;;;;;;;;;5052072;28;20218;-34
2022/07/26 08:24:55;;;;;;;1.65;1.17;;;;;;;;;;5052714;28;20197;-34
2022/07/26 08:27:22;;;;;;;3.75;1.30;;;;;;;;;;5051683;28;20233;-39
2022/07/26 08:29:49;;;;;;;2.80;1.13;;;;;;;;;;5049074;28;20205;-34
2022/07/26 08:32:17;;;;;;;4.07;1.10;;;;;;;;;;5053426;28;20208;-35
2022/07/26 08:34:44;;;;;;;3.15;1.20;;;;;;;;;;5053420;28;20194;-34
2022/07/26 08:37:11;;;;;;;5.25;1.17;;;;;;;;;;5049456;28;20225;-32
2022/07/26 08:39:39;;;;;;;2.47;1.10;;;;;;;;;;5053902;28;20194;-34
2022/07/26 08:42:13;;;;;;;2.03;1.08;;;;;;;;;;5051595;28;20301;-36
2022/07/26 08:44:41;;;;;;;2.83;1.40;;;;;;;;;;5049394;28;20205;-35
2022/07/26 08:47:10;;;;;;;1.00;0.90;;;;;;;;;;5062715;28;20229;-38
2022/07/26 08:49:39;;;;;;;5.03;1.23;;;;;;;;;;5062616;28;20216;-37
2022/07/26 08:52:06;;;;;;;2.88;1.60;;;;;;;;;;5057147;28;20375;-35
2022/07/26 08:54:34;;;;;;;1.63;1.20;;;;;;;;;;5052108;28;20206;-39
2022/07/26 08:57:01;;;;;;;2.75;1.10;;;;;;;;;;5052188;28;20714;-36
2022/07/26 08:59:29;;;;;;;1.80;0.95;;;;;;;;;;5057244;28;20220;-38
2022/07/26 09:01:57;;;;;;;1.33;0.95;;;;;;;;;;5071234;28;20247;-34
2022/07/26 09:04:25;;;;;;;2.28;0.85;;;;;;;;;;5054267;28;20229;-35
2022/07/26 09:06:58;;;;;;;1.90;1.10;;;;;;;;;;5057571;28;20271;-36
2022/07/26 09:09:25;;;;;;;3.33;1.17;;;;;;;;;;5053803;28;20205;-34
2022/07/26 09:11:52;;;;;;;2.47;0.93;;;;;;;;;;5054508;28;20219;-37
2022/07/26 09:14:19;;;;;;;1.15;0.95;;;;;;;;;;5053458;28;20206;-34
2022/07/26 09:16:57;;;;;;;1.50;1.17;;;;;;;;;;5057622;28;20225;-36
2022/07/26 09:19:24;;;;;;;1.30;0.90;;;;;;;;;;5064653;28;20209;-33
2022/07/26 09:21:52;;;;;;;49.35;8.55;;;;;;;;;;5055904;28;20215;-35
2022/07/26 09:24:31;;;;;;;18.48;3.97;;;;;;;;;;5055718;28;20216;-35
2022/07/26 09:26:59;;;;;;;9.68;2.13;;;;;;;;;;5072233;28;20221;-36
2022/07/26 09:29:27;;;;;;;10.75;1.95;;;;;;;;;;5067752;28;20516;-36
2022/07/26 09:32:08;;;;;;;1.83;0.90;;;;;;;;;;5052781;28;20293;-38
2022/07/26 09:34:36;;;;;;;5.35;1.10;;;;;;;;;;5061439;28;20193;-33
2022/07/26 09:37:03;;;;;;;2.95;1.00;;;;;;;;;;5049602;28;20237;-36
2022/07/26 09:39:31;;;;;;;6.30;0.90;;;;;;;;;;5051261;28;20297;-36
2022/07/26 09:41:59;;;;;;;2.85;2.50;;;;;;;;;;5051127;28;20262;-35
2022/07/26 09:44:26;;;;;;;0.90;0.80;;;;;;;;;;5053369;28;20323;-36
2022/07/26 09:46:55;;;;;;;3.95;1.23;;;;;;;;;;5059918;28;20236;-32
2022/07/26 09:49:23;;;;;;;3.55;1.10;;;;;;;;;;5071359;28;20271;-36
2022/07/26 09:51:51;;;;;;;1.40;0.90;;;;;;;;;;5053343;28;20216;-35
2022/07/26 09:54:18;;;;;;;4.90;1.15;;;;;;;;;;5058570;28;20259;-34
2022/07/26 09:56:48;;;;;;;1.70;1.00;;;;;;;;;;5051312;28;20244;-34
2022/07/26 09:59:16;;;;;;;4.00;1.23;;;;;;;;;;5048379;28;20205;-33
2022/07/26 10:01:43;;;;;;;1.95;0.98;;;;;;;;;;5057297;28;20213;-35
2022/07/26 10:04:10;;;;;;;4.55;1.08;;;;;;;;;;5063760;28;20221;-35
2022/07/26 10:06:38;;;;;;;1.70;0.82;;;;;;;;;;5048385;28;20222;-36
2022/07/26 10:09:05;;;;;;;2.30;1.30;;;;;;;;;;5058752;28;20198;-36
2022/07/26 10:11:36;;;;;;;11.15;2.30;;;;;;;;;;5051149;28;20220;-32
2022/07/26 10:14:18;;;;;;;2.67;1.10;;;;;;;;;;5048955;28;20234;-33
2022/07/26 10:16:47;;;;;;;7.57;1.63;;;;;;;;;;5050766;28;20249;-33
2022/07/26 10:19:37;;;;;;;2.97;0.95;;;;;;;;;;5053205;28;20207;-33
2022/07/26 10:22:19;;;;;;;11.05;1.45;;;;;;;;;;5053916;28;20194;-37
2022/07/26 10:24:46;;;;;;;4.20;0.90;;;;;;;;;;5047647;28;20209;-33
2022/07/26 10:27:28;;;;;;;4.95;0.90;;;;;;;;;;5050186;28;20759;-38
2022/07/26 10:30:21;;;;;;;13.05;2.92;;;;;;;;;;5044022;28;20216;-33
2022/07/26 10:32:58;;;;;;;1.70;0.90;;;;;;;;;;5047255;28;20209;-32
2022/07/26 10:35:31;;;;;;;12.05;2.80;;;;;;;;;;5033568;28;20213;-33
2022/07/26 10:37:59;;;;;;;7.32;1.70;;;;;;;;;;5049066;28;20272;-36
2022/07/26 10:40:28;;;;;;;2.33;0.70;;;;;;;;;;5046251;28;20198;-34
2022/07/26 10:43:07;;;;;;;3.53;1.50;;;;;;;;;;5044188;28;20323;-35
2022/07/26 10:45:35;;;;;;;3.92;0.90;;;;;;;;;;5043480;28;20205;-35
2022/07/26 10:48:14;;;;;;;11.15;2.70;;;;;;;;;;5053590;28;20229;-34
2022/07/26 10:50:42;;;;;;;9.13;1.48;;;;;;;;;;5046143;28;20220;-37
2022/07/26 10:53:10;;;;;;;7.30;2.00;;;;;;;;;;5051381;28;20612;-35
2022/07/26 10:55:46;;;;;;;15.68;2.60;;;;;;;;;;5055611;28;20194;-34
2022/07/26 10:58:13;;;;;;;8.63;1.67;;;;;;;;;;5046964;28;20263;-35
2022/07/26 11:00:41;;;;;;;3.45;1.30;;;;;;;;;;5048796;28;20293;-36
2022/07/26 11:03:08;;;;;;;1.85;1.00;;;;;;;;;;5050310;28;20228;-36
2022/07/26 11:05:36;;;;;;;15.57;2.15;;;;;;;;;;5047511;28;20198;-35
2022/07/26 11:08:07;;;;;;;1.98;0.77;;;;;;;;;;5056381;28;20233;-34
2022/07/26 11:10:36;;;;;;;2.65;1.00;;;;;;;;;;5049486;28;20204;-36
2022/07/26 11:13:07;;;;;;;2.00;0.90;;;;;;;;;;5049476;28;20402;-35
2022/07/26 11:15:35;;;;;;;1.00;0.80;;;;;;;;;;5046078;28;20207;-32
2022/07/26 11:18:13;;;;;;;2.63;1.10;;;;;;;;;;5048359;28;20687;-33
2022/07/26 11:20:42;;;;;;;5.03;1.40;;;;;;;;;;5044578;28;20216;-34
2022/07/26 11:23:29;;;;;;;1.10;1.00;;;;;;;;;;5056753;28;20229;-38
2022/07/26 11:26:06;;;;;;;1.63;0.90;;;;;;;;;;5051184;28;20202;-33
2022/07/26 11:28:54;;;;;;;1.35;0.77;;;;;;;;;;5046183;28;20197;-35
2022/07/26 11:34:18;;;;;;;0.98;0.70;;;;;;;;;;5102517;28;20200;-91
2022/07/26 11:36:47;;;;;;;0.88;0.73;;;;;;;;;;5105094;27;20206;-89
2022/07/26 11:39:15;;;;;;;1.00;0.90;;;;;;;;;;5126568;27;20202;-90
2022/07/26 11:41:43;;;;;;;3.60;1.00;;;;;;;;;;5126831;27;20200;-90
2022/07/26 11:44:15;;;;;;;2.15;0.82;;;;;;;;;;5116089;28;20227;-89
2022/07/26 11:46:46;;;;;;;1.25;0.82;;;;;;;;;;5122090;27;20253;-89
2022/07/26 11:49:15;;;;;;;0.90;0.90;;;;;;;;;;5133619;27;20200;-89
2022/07/26 11:51:50;;;;;;;0.82;0.82;;;;;;;;;;5104873;28;20207;-92
2022/07/26 11:54:18;;;;;;;3.00;0.80;;;;;;;;;;5118232;28;20206;-94
2022/07/26 11:56:51;;;;;;;4.45;0.95;;;;;;;;;;5122449;28;20215;-94
2022/07/26 11:59:19;;;;;;;3.97;1.27;;;;;;;;;;5102759;28;20208;-93
2022/07/26 12:01:46;;;;;;;1.08;0.80;;;;;;;;;;5114312;27;20233;-93
2022/07/26 12:04:19;;;;;;;1.30;0.77;;;;;;;;;;5143419;27;20223;-94
2022/07/26 12:06:46;;;;;;;2.25;0.70;;;;;;;;;;5147118;27;20195;-93
2022/07/26 12:12:09;;;;;;;6.55;1.63;;;;;;;;;;5141906;27;20237;-93
2022/07/26 12:14:37;;;;;;;1.98;0.70;;;;;;;;;;5119875;27;20298;-93
2022/07/26 12:17:14;;;;;;;1.58;0.73;;;;;;;;;;5112459;27;20212;-93
2022/07/26 12:19:42;;;;;;;1.95;0.90;;;;;;;;;;5114885;27;20224;-93
2022/07/26 12:22:10;;;;;;;0.80;0.80;;;;;;;;;;5130856;27;20219;-94
2022/07/26 12:24:41;;;;;;;0.90;0.73;;;;;;;;;;5129237;27;20661;-93
2022/07/26 12:27:09;;;;;;;1.63;0.70;;;;;;;;;;5103198;28;20525;-93
2022/07/26 12:29:36;;;;;;;1.23;0.80;;;;;;;;;;5103290;28;20250;-93
2022/07/26 12:32:05;;;;;;;1.10;1.00;;;;;;;;;;5112281;27;20213;-94
2022/07/26 12:34:32;;;;;;;1.60;0.68;;;;;;;;;;5121685;27;20560;-93
2022/07/26 12:37:13;;;;;;;0.70;0.65;;;;;;;;;;5105281;27;20211;-93
2022/07/26 12:39:42;;;;;;;0.95;0.80;;;;;;;;;;5138468;27;20239;-93
2022/07/26 12:42:22;;;;;;;0.85;0.85;;;;;;;;;;5125285;27;20203;-94
2022/07/26 12:44:49;;;;;;;0.77;0.77;;;;;;;;;;5097409;28;20250;-93
2022/07/26 12:47:16;;;;;;;2.92;0.73;;;;;;;;;;5116406;27;20207;-93
2022/07/26 12:49:45;;;;;;;0.85;0.85;;;;;;;;;;5127530;27;20314;-93
2022/07/26 12:52:14;;;;;;;0.82;0.82;;;;;;;;;;5125821;27;20211;-94
2022/07/26 12:54:44;;;;;;;1.02;0.70;;;;;;;;;;5140916;27;20225;-93
2022/07/26 12:57:12;;;;;;;1.33;0.60;;;;;;;;;;5116857;27;20204;-94
2022/07/26 12:59:39;;;;;;;0.88;0.60;;;;;;;;;;5116812;28;20239;-93
2022/07/26 13:02:07;;;;;;;2.25;0.73;;;;;;;;;;5101849;28;20220;-94
2022/07/26 13:04:34;;;;;;;3.25;1.02;;;;;;;;;;5101552;28;20231;-93
2022/07/26 13:07:02;;;;;;;1.85;0.73;;;;;;;;;;5116730;27;20243;-93
2022/07/26 13:09:32;;;;;;;2.13;0.70;;;;;;;;;;5137264;27;20203;-96
2022/07/26 13:12:09;;;;;;;2.85;0.95;;;;;;;;;;5137865;27;20671;-95
2022/07/26 13:14:40;;;;;;;0.93;0.75;;;;;;;;;;5140764;27;20203;-94
2022/07/26 13:17:10;;;;;;;0.85;0.80;;;;;;;;;;5123629;27;20290;-93
2022/07/26 13:19:38;;;;;;;0.75;0.73;;;;;;;;;;5133824;27;20254;-94
2022/07/26 13:22:06;;;;;;;16.20;3.13;;;;;;;;;;5134078;27;20214;-93
2022/07/26 13:24:37;;;;;;;1.23;0.85;;;;;;;;;;5121406;28;20220;-95
2022/07/26 13:27:05;;;;;;;5.38;1.17;;;;;;;;;;5118293;28;20208;-94
2022/07/26 13:29:33;;;;;;;5.70;1.20;;;;;;;;;;5131654;22;21180;-33
2022/07/26 13:32:00;;;;;;;1.50;0.77;;;;;;;;;;5079739;28;20200;-39
2022/07/26 13:34:28;;;;;;;1.10;0.52;;;;;;;;;;5078843;28;20208;-36
2022/07/26 13:36:56;;;;;;;15.55;2.08;;;;;;;;;;5076855;28;20228;-37
2022/07/26 13:39:23;;;;;;;1.38;0.90;;;;;;;;;;5073634;28;20202;-39
2022/07/26 13:41:50;;;;;;;2.63;0.60;;;;;;;;;;5055330;28;20209;-33
2022/07/26 13:44:19;;;;;;;0.52;0.52;;;;;;;;;;5055870;28;20229;-38
2022/07/26 13:46:46;;;;;;;0.57;0.55;;;;;;;;;;5061034;28;20236;-35
2022/07/26 13:49:13;;;;;;;0.80;0.77;;;;;;;;;;5071735;28;20212;-38
2022/07/26 13:51:56;;;;;;;0.60;0.60;;;;;;;;;;5059514;28;20269;-34
2022/07/26 13:54:25;;;;;;;0.38;0.38;;;;;;;;;;5080101;28;20192;-38
2022/07/26 13:56:52;;;;;;;3.03;0.70;;;;;;;;;;5061313;28;20225;-38
2022/07/26 13:59:21;;;;;;;2.30;0.68;;;;;;;;;;5070642;28;20211;-38
2022/07/26 14:01:48;;;;;;;0.68;0.68;;;;;;;;;;5070641;28;20236;-33
2022/07/26 14:04:15;;;;;;;1.35;0.60;;;;;;;;;;5090769;28;20231;-29
2022/07/26 14:06:43;;;;;;;0.60;0.60;;;;;;;;;;5074575;28;20228;-38
2022/07/26 14:09:10;;;;;;;0.55;0.50;;;;;;;;;;5082870;28;20207;-36
2022/07/26 14:11:37;;;;;;;0.70;0.70;;;;;;;;;;5093253;28;20207;-35
2022/07/26 14:14:04;;;;;;;1.00;0.60;;;;;;;;;;5075150;28;20208;-35
2022/07/26 14:16:33;;;;;;;0.95;0.55;;;;;;;;;;5067466;28;20311;-33
2022/07/26 14:19:00;;;;;;;0.55;0.55;;;;;;;;;;5081248;28;20207;-34
2022/07/26 14:21:28;;;;;;;1.20;0.70;;;;;;;;;;5070221;28;20208;-38
2022/07/26 14:23:56;;;;;;;2.10;0.63;;;;;;;;;;5080150;28;20217;-34
2022/07/26 14:26:23;;;;;;;2.55;0.57;;;;;;;;;;5091758;28;20242;-35
2022/07/26 14:28:50;;;;;;;0.60;0.60;;;;;;;;;;5069060;28;20214;-34
2022/07/26 14:31:17;;;;;;;1.00;0.60;;;;;;;;;;5060094;28;20217;-32
2022/07/26 14:33:46;;;;;;;4.72;0.90;;;;;;;;;;5087250;28;20212;-39
2022/07/26 14:36:13;;;;;;;1.45;0.60;;;;;;;;;;5074573;28;20223;-37
2022/07/26 14:38:41;;;;;;;2.13;0.75;;;;;;;;;;5078640;28;20257;-31
2022/07/26 14:41:08;;;;;;;1.20;0.50;;;;;;;;;;5059922;28;20205;-40
2022/07/26 14:43:35;;;;;;;0.65;0.60;;;;;;;;;;5055080;28;20209;-35
2022/07/26 14:46:02;;;;;;;1.02;0.68;;;;;;;;;;5068578;28;20228;-33
2022/07/26 14:48:29;;;;;;;1.30;0.60;;;;;;;;;;5070279;28;20287;-31
2022/07/26 14:50:58;;;;;;;16.40;2.85;;;;;;;;;;5066221;28;20209;-39
2022/07/26 14:53:25;;;;;;;4.88;1.55;;;;;;;;;;5082390;28;20215;-32
2022/07/26 14:55:52;;;;;;;12.52;2.95;;;;;;;;;;5071600;28;20197;-39
2022/07/26 14:58:20;;;;;;;2.55;0.73;;;;;;;;;;5068955;28;20254;-37